Pejman Hajsafi

Ojeador - Saipa
3 Abr 2027
Sábado
Continuar

Personalidad

Adaptabilidad (2) Ambición (17) Controversia (8) Lealtad (7) Presión (4) Profesionalismo (18) Deportividad (18) Temperamento (20)

Perfil

Estilo de dirección Democrático
Licencia Continental C
Determinación 3
Gestión de personas 11
Motivación 8
Disciplina 5
Satisfacción laboral
95%
Fatiga
0%
Cargo Ojeador
Salario 22.6K p/s
Contrato 14.03.2030

Rendimiento

Comportamiento Bueno
Efectividad del entrenamiento
37%
Desarrollo de jugadores
45%
Prevención de lesiones
35%
Implementación táctica
50%

Eventos recientes

Asistió a una reunión de captación 7d atrás
Recomendó un objetivo de fichaje 7d atrás
Evaluó a un jugador 7d atrás
Evaluó a un jugador 7d atrás
Evaluó a un jugador 14d atrás
Evaluó a un jugador 14d atrás
Evaluó a un jugador 14d atrás
Evaluó a un jugador 14d atrás

Actualmente siguiendo

133
Jugador Club Estado Habilidad Confianza Observado Última observación Último voto
Mark Helm Fleetwood Town Activo 96 / 114 40% 2 28.03.2027 -
Charlie Webster Burton Albion Activo 107 / 107 40% 1 28.03.2027 -
Alistair Smith AFC Wimbledon Activo 106 / 105 40% 1 28.03.2027 -
Jamie Jellis Walsall Activo 84 / 101 40% 4 24.03.2027 -
Mahmoud Diasty Wadi Degla Activo 109 / 82 40% 2 24.03.2027 -
Migran Ageyan Ufa Activo 89 / 88 40% 1 24.03.2027 -
Ryan Stirk Chesterfield Activo 96 / 113 40% 2 21.03.2027 -
Johnly Yfeko Exeter City Activo 112 / 100 40% 2 21.03.2027 -
Daniil Kornyushin Shinnik Activo 100 / 92 40% 1 19.03.2027 -
Patryk Szwedzik Ruch Activo 99 / 91 40% 1 19.03.2027 -
Juan David Obando Saturn Activo 84 / 86 40% 3 17.03.2027 -
Amadou Soumaré Djoliba Activo 100 / 106 40% 1 17.03.2027 -
Ethan Coleman Gillingham Activo 88 / 107 40% 1 16.03.2027 -
Jack Lankester Crewe Alexandra Activo 96 / 90 40% 1 16.03.2027 -
Raphael Amponsah Hearts of Oak Activo 73 / 93 40% 1 16.03.2027 -
Kyle John Port Vale Activo 117 / 121 40% 2 15.03.2027 -
Jay Matete Milton Keynes Dons Activo 108 / 115 40% 2 15.03.2027 -
Diego Esteban Panetolikos Activo 120 / 115 40% 1 15.03.2027 -
Mateo Fernández Angusht Activo 82 / 86 40% 5 13.03.2027 -
Ammar Hamdy ENPPI Activo 102 / 110 40% 1 13.03.2027 -
Khaled Al-Nabris Ismaily Activo 86 / 92 40% 5 10.03.2027 -
Stephen Duke-McKenna KAMAZ Activo 96 / 85 40% 1 10.03.2027 -
Dean Campbell Northampton Town Activo 118 / 116 40% 3 03.03.2027 -
Vincent Harper Walsall Activo 103 / 108 40% 2 03.03.2027 -
Guilherme Santos Feirense Activo 85 / 94 40% 1 03.03.2027 -
Daniel Awuni Aduana Stars Activo 91 / 96 40% 2 01.03.2027 -
Kane Drummond Oldham Athletic Activo 87 / 84 40% 2 01.03.2027 -
Géza Dávid Turi Grimsby Town Activo 92 / 114 40% 1 28.02.2027 -
David Kokoev Yenisey Activo 112 / 97 40% 1 28.02.2027 -
Andrey Mazurin Yenisey Activo 100 / 97 40% 1 28.02.2027 -
Matt Smith Newport County Activo 89 / 95 40% 4 26.02.2027 -
Seb Palmer-Houlden Gillingham Activo 101 / 87 40% 1 26.02.2027 -
Liam Coyle Accrington Stanley Activo 87 / 81 40% 1 26.02.2027 -
Đorđe Pantelić Spartak Kostroma Activo 98 / 108 40% 4 25.02.2027 -
Rio Adébísí Peterborough United Activo 111 / 103 40% 3 25.02.2027 -
Hussayn Touati Oleksandriya Activo 102 / 99 40% 1 25.02.2027 -
Pablo Castro UCSA Activo 106 / 102 40% 1 24.02.2027 -
Ben Jackson Barrow AFC Activo 85 / 101 40% 1 23.02.2027 -
Connor Barrett Walsall Activo 113 / 120 40% 1 21.02.2027 -
Diego Livyi Bereh Activo 105 / 97 40% 1 21.02.2027 -
Jay Williams Crawley Town Activo 86 / 88 40% 1 21.02.2027 -
Bassem Ghaly Masr El Makasa Activo 118 / 111 40% 3 19.02.2027 -
Roman Yuvkhymets UCSA Activo 90 / 76 40% 1 12.02.2027 -
Lewis Richards Crawley Town Activo 84 / 94 40% 1 12.02.2027 -
Mohammed Hussein Hearts of Oak Activo 91 / 109 40% 3 02.02.2027 -
Lucas Dilelio ASO Chlef Activo 93 / 90 40% 2 02.02.2027 -
Carlos Torres Dibba Activo 94 / 97 40% 3 02.02.2027 -
Luka Stankovski Kolos Activo 107 / 105 40% 1 28.01.2027 -
Marko Musulin Tarxien Rainbows Activo 99 / 97 40% 1 26.01.2027 -
Bernard Mensah Wa All Stars Activo 102 / 115 40% 2 23.01.2027 -
Mohammad Reza Ghobeishavi Saba Activo 100 / 92 40% 1 21.01.2027 -
Matías Gutiérrez Baniyas Activo 97 / 97 40% 1 21.01.2027 -
Mads Abrahamsen Metallurg Activo 89 / 79 40% 1 21.01.2027 -
Kyreece Lisbie Colchester United Activo 97 / 106 40% 2 19.01.2027 -
Saman Gholizadeh Siah Jamegan Activo 86 / 87 65% 1 18.01.2027 Aprobar
Danil Lipovoy Ufa Activo 93 / 87 40% 2 16.01.2027 -
Clinton Mola Bristol Rovers Activo 93 / 114 40% 1 16.01.2027 -
Ali Saleh Al Wasl Activo 113 / 108 40% 1 14.01.2027 -
Matías Lacava Vizela Activo 93 / 94 40% 1 13.01.2027 -
Conor Grant Notts County Activo 106 / 81 40% 1 13.01.2027 -
Tyrese Shade Burton Albion Activo 112 / 88 40% 1 13.01.2027 -
Danila Shilov Dinamo Stavropol Activo 87 / 89 40% 2 12.01.2027 -
Oleksandr Bieliaiev Kudrivka Activo 103 / 104 40% 1 12.01.2027 -
Eduardo Naft Tehran Activo 99 / 85 40% 3 25.12.2026 -
Iliya Yurukov Botev Vratsa Activo 96 / 86 40% 1 22.12.2026 -
Malick Fall Dobrudzha Activo 90 / 89 40% 1 22.12.2026 -
Wesley Tarxien Rainbows Activo 91 / 100 40% 2 21.12.2026 -
Lenar Fattakhov Rubin Activo 85 / 73 40% 1 21.12.2026 -
Isaac Twum Hearts of Oak Activo 99 / 116 40% 2 20.12.2026 -
Josh Woods Accrington Stanley Activo 72 / 76 40% 1 20.12.2026 -
Kamarai Swyer Northampton Town Activo 82 / 71 40% 1 19.12.2026 -
Lewis McCann Fleetwood Town Activo 100 / 113 40% 2 17.12.2026 -
Andrii Riznyk Ahrobiznes Activo 88 / 81 40% 1 17.12.2026 -
Daniil Agureev Amkar Activo 81 / 96 40% 2 12.12.2026 -
Thomas Sang Shrewsbury Town Activo 100 / 91 40% 1 12.12.2026 -
Dmitry Kratkov Dinamo Stavropol Activo 91 / 81 40% 1 10.12.2026 -
Valentín Fenoglio Estudiantes Activo 126 / 101 40% 1 09.12.2026 -
Jack Fitzwater Exeter City Activo 115 / 87 40% 1 09.12.2026 -
Saeid Aghaei Naft Tehran Activo 93 / 108 40% 1 09.12.2026 -
Hakan Tosun Ravan Rechazado 92 / 91 40% 1 09.12.2026 Más información
Andrej Pekarik FK Senica Rechazado 99 / 98 40% 1 07.12.2026 Más información
Nader Mohammadi Spartak Kostroma Rechazado 95 / 106 40% 1 07.12.2026 Más información
Lucio Garberi Lokomotiv Plovdiv Activo 104 / 94 40% 2 04.12.2026 -
Ivan Churikov Sibir Activo 101 / 96 40% 2 04.12.2026 -
Jonas Auer Rapid Wien Activo 126 / 109 40% 3 04.12.2026 -
Ivan Severjanov Volna Activo 72 / 86 40% 1 01.12.2026 -
Yilson Mosquera Tarxien Rainbows Activo 98 / 79 40% 1 01.12.2026 -
Nichita Moțpan SKA Khabarovsk Activo 106 / 109 40% 2 29.11.2026 -
Yonis Njoh Viborg Activo 108 / 100 40% 1 29.11.2026 -
Aminu Sani Kano Pillars Activo 83 / 96 40% 1 11.11.2026 -
Mikhail Gainov Dinamo Stavropol Activo 71 / 91 40% 1 11.11.2026 -
Matías Pellegrini Vélez Activo 130 / 135 40% 1 10.11.2026 -
Daniel Braut Tromso Activo 103 / 103 40% 1 06.11.2026 -
Denys Rezepov Nyva Activo 98 / 90 40% 2 03.11.2026 -
Sebastián Valenzuela Yenisey Activo 96 / 93 40% 1 03.11.2026 -
Daniil Rodin Leningradets Activo 91 / 100 40% 1 03.11.2026 -
Vajebah Sakor Montana Activo 97 / 92 40% 1 03.11.2026 -
Brandon Ormonde-Ottewill Puskas Akademia Activo 111 / 112 40% 1 03.11.2026 -
Juan Pablo De la Reta Maipú Activo 113 / 133 40% 2 31.10.2026 -
Danila Yemeljanov Leningradets Activo 96 / 90 40% 1 31.10.2026 -
Kreshnik Krasniqi Stromsgodset Activo 120 / 110 40% 1 26.10.2026 -
Ole Enersen Stromsgodset Activo 101 / 107 40% 1 26.10.2026 -
Alexandr Bem Tyumen Activo 98 / 104 40% 1 24.10.2026 -
Jonathan Okoronkwo Torpedo Moscow Rechazado 107 / 98 40% 2 23.10.2026 Más información
Amir Hossein Jalalivand Esteghlal Khuzestan Activo 99 / 97 40% 2 23.10.2026 -
Nene Beroe Activo 87 / 76 40% 1 23.10.2026 -
Albek Gongapshev Shinnik Activo 99 / 86 40% 1 22.10.2026 -
Valentín Depietri Talleres Activo 110 / 126 40% 1 21.10.2026 -
Ansor Khabibov Ryazan Activo 94 / 85 40% 1 19.10.2026 -
Lawrence Nicholas Ashanti Gold Activo 96 / 93 40% 1 19.10.2026 -
Magnus Lankhof Dahlby Stabaek Activo 110 / 86 40% 1 14.10.2026 -
Lucas Richarte Temperley Activo 109 / 99 40% 1 11.10.2026 -
Juan Pablo Barinaga Patronato Activo 110 / 105 40% 1 11.10.2026 -
Davíð Snær Jóhannsson Aalesund Activo 104 / 99 40% 1 10.10.2026 -
Maximiliano Badur Morón Activo 114 / 112 40% 1 09.10.2026 -
Eyþór Aron Wöhler Fylkir Activo 101 / 88 40% 1 09.10.2026 -
Vladislav Kamilov Ufa Activo 110 / 108 40% 1 07.10.2026 -
Sajjad Danaye Baghaki Esteghlal Khuzestan Activo 88 / 97 40% 1 07.10.2026 -
José Soto Portuguesa Activo 93 / 108 40% 1 05.10.2026 -
Luciano Sánchez Argentinos Juniors Activo 119 / 105 40% 1 05.10.2026 -
Tomás Asta-Buruaga Esteghlal Activo 114 / 116 40% 1 05.10.2026 -
Álvaro Medrán Al-Ettifaq Activo 122 / 118 40% 1 07.09.2026 -
Felipe Ávila Tractor Activo 105 / 100 40% 1 07.09.2026 -
Aleksa Đurasović Akron Activo 101 / 119 40% 1 31.08.2026 -
Mohammad Reza Rezaei Naft Tehran Activo 104 / 107 40% 1 28.08.2026 -
Carlos Rincon Atletico Venezuela Activo 111 / 88 40% 1 27.08.2026 -
Lautaro Pertusatti River Plate Activo 106 / 107 40% 1 27.08.2026 -
Kevin De La Hoz Zulia Activo 115 / 109 40% 1 19.08.2026 -
Pedro Silva Torrejón Gimnasia La Plata Activo 124 / 133 40% 1 19.08.2026 -
Lucas Souto Defensa y Justicia Activo 112 / 117 40% 1 18.08.2026 -
Valentín Fascendini Talleres Activo 106 / 128 40% 1 18.08.2026 -
Cristian Núñez Huracán Activo 128 / 126 40% 1 01.08.2026 -
Richard Figueroa Deportivo Lara Activo 105 / 111 40% 1 01.08.2026 -